createdAt,value
2023-05-02T00:01:59.886Z,3.00
2023-05-02T00:04:27.018Z,2.95
2023-05-02T00:06:54.683Z,2.78
2023-05-02T00:09:22.058Z,3.20
2023-05-02T00:11:49.162Z,3.10
2023-05-02T00:14:16.165Z,2.90
2023-05-02T00:16:43.217Z,2.80
2023-05-02T00:19:10.234Z,3.20
2023-05-02T00:21:37.425Z,3.00
2023-05-02T00:24:04.663Z,2.92
2023-05-02T00:26:31.826Z,2.90
2023-05-02T00:28:59.112Z,2.90
2023-05-02T00:31:26.222Z,2.95
2023-05-02T00:33:53.305Z,3.00
2023-05-02T00:36:20.501Z,2.95
2023-05-02T00:38:47.512Z,3.20
2023-05-02T00:41:16.705Z,2.80
2023-05-02T00:43:43.693Z,2.92
2023-05-02T00:46:12.844Z,3.17
2023-05-02T00:48:40.183Z,3.27
2023-05-02T00:51:08.679Z,3.10
2023-05-02T00:53:36.683Z,3.10
2023-05-02T00:56:03.924Z,2.90
2023-05-02T00:58:31.290Z,2.90
2023-05-02T01:01:44.579Z,3.05
2023-05-02T01:04:19.092Z,3.20
2023-05-02T01:07:03.773Z,2.80
2023-05-02T01:09:39.632Z,3.13
2023-05-02T01:12:31.484Z,3.13
2023-05-02T01:15:02.269Z,2.90
2023-05-02T01:17:32.938Z,3.10
2023-05-02T01:20:03.902Z,3.20
2023-05-02T01:22:32.073Z,2.80
2023-05-02T01:25:10.228Z,3.22
2023-05-02T01:27:52.139Z,2.80
2023-05-02T01:30:21.528Z,2.60
2023-05-02T01:32:49.914Z,3.00
2023-05-02T01:35:18.840Z,2.63
2023-05-02T01:37:46.947Z,2.90
2023-05-02T01:40:17.898Z,2.80
2023-05-02T01:42:46.760Z,2.67
2023-05-02T01:45:14.982Z,2.78
2023-05-02T01:47:44.500Z,2.78
2023-05-02T01:50:16.837Z,2.75
2023-05-02T01:52:45.846Z,2.72
2023-05-02T01:55:15.435Z,2.90
2023-05-02T01:57:44.798Z,3.00
2023-05-02T02:00:14.027Z,3.20
2023-05-02T02:02:42.533Z,2.80
2023-05-02T02:05:11.149Z,2.70
2023-05-02T02:07:38.532Z,2.40
2023-05-02T02:10:06.082Z,2.60
2023-05-02T02:12:42.658Z,2.60
2023-05-02T02:15:27.434Z,2.80
2023-05-02T02:18:01.276Z,3.10
2023-05-02T02:20:32.700Z,2.60
2023-05-02T02:23:05.271Z,2.50
2023-05-02T02:25:34.026Z,2.50
2023-05-02T02:28:01.677Z,2.80
2023-05-02T02:30:28.955Z,2.65
2023-05-02T02:32:55.990Z,2.50
2023-05-02T02:35:23.734Z,3.00
2023-05-02T02:38:14.471Z,2.80
2023-05-02T02:40:57.593Z,2.50
2023-05-02T02:43:40.584Z,2.50
2023-05-02T02:46:32.974Z,2.80
2023-05-02T02:49:31.980Z,2.72
2023-05-02T02:52:11.266Z,2.70
2023-05-02T02:54:49.815Z,2.33
2023-05-02T02:57:37.276Z,2.70
2023-05-02T03:00:27.540Z,2.50
2023-05-02T03:02:56.128Z,2.90
2023-05-02T03:05:24.112Z,2.70
2023-05-02T03:07:51.576Z,2.60
2023-05-02T03:10:18.632Z,2.70
2023-05-02T03:12:45.693Z,2.72
2023-05-02T03:15:34.208Z,2.80
2023-05-02T03:18:01.415Z,2.90
2023-05-02T03:20:28.401Z,2.70
2023-05-02T03:22:55.425Z,2.95
2023-05-02T03:25:22.358Z,3.00
2023-05-02T03:27:49.531Z,3.30
2023-05-02T03:30:16.540Z,3.10
2023-05-02T03:32:43.625Z,3.10
2023-05-02T03:35:10.683Z,3.00
2023-05-02T03:37:37.606Z,2.97
2023-05-02T03:40:05.099Z,2.93
2023-05-02T03:42:39.947Z,3.00
2023-05-02T03:45:08.006Z,3.20
2023-05-02T03:47:35.221Z,2.90
2023-05-02T03:50:03.440Z,3.00
2023-05-02T03:52:30.473Z,2.97
2023-05-02T03:54:57.884Z,3.00
2023-05-02T03:57:24.811Z,2.90
2023-05-02T03:59:51.817Z,3.20
2023-05-02T04:02:18.932Z,3.10
2023-05-02T04:04:46.129Z,3.33
2023-05-02T04:07:19.583Z,2.80
2023-05-02T04:09:47.064Z,3.28
2023-05-02T04:12:16.190Z,3.20
2023-05-02T04:14:43.743Z,3.15
2023-05-02T04:17:10.899Z,3.00
2023-05-02T04:19:37.870Z,3.10
2023-05-02T04:22:04.925Z,2.90
2023-05-02T04:24:32.003Z,3.22
2023-05-02T04:26:59.001Z,3.22
2023-05-02T04:29:25.964Z,3.30
2023-05-02T04:31:53.830Z,3.10
2023-05-02T04:34:21.081Z,3.10
2023-05-02T04:36:48.114Z,3.00
2023-05-02T04:39:15.106Z,3.15
2023-05-02T04:41:43.195Z,3.00
2023-05-02T04:44:10.139Z,3.10
2023-05-02T04:46:37.271Z,3.10
2023-05-02T04:49:04.211Z,3.00
2023-05-02T04:51:31.979Z,3.17
2023-05-02T04:53:58.948Z,3.20
2023-05-02T04:56:26.410Z,3.20
2023-05-02T04:58:53.635Z,2.58
2023-05-02T05:01:20.747Z,3.10
2023-05-02T05:03:47.828Z,2.80
2023-05-02T05:06:15.749Z,2.90
2023-05-02T05:08:45.494Z,3.00
2023-05-02T05:11:12.976Z,2.88
2023-05-02T05:13:39.964Z,2.97
2023-05-02T05:16:07.390Z,2.83
2023-05-02T05:18:40.880Z,3.20
2023-05-02T05:21:09.600Z,3.00
2023-05-02T05:23:37.566Z,2.90
2023-05-02T05:26:18.066Z,3.10
2023-05-02T05:28:45.293Z,3.10
2023-05-02T05:31:16.571Z,3.03
2023-05-02T05:33:44.333Z,3.40
2023-05-02T05:36:14.508Z,3.00
2023-05-02T05:38:41.751Z,3.33
2023-05-02T05:41:09.204Z,3.17
2023-05-02T05:43:37.990Z,2.97
2023-05-02T05:46:05.690Z,3.00
2023-05-02T05:48:32.863Z,3.17
2023-05-02T05:51:05.383Z,2.97
2023-05-02T05:53:32.664Z,2.70
2023-05-02T05:55:59.980Z,2.80
2023-05-02T05:58:27.040Z,2.97
2023-05-02T06:00:54.986Z,3.20
2023-05-02T06:03:22.348Z,3.03
2023-05-02T06:05:49.431Z,3.80
2023-05-02T06:08:16.522Z,4.27
2023-05-02T06:10:43.482Z,3.80
2023-05-02T06:13:10.510Z,4.25
2023-05-02T06:15:37.524Z,3.65
2023-05-02T06:18:04.711Z,3.60
2023-05-02T06:20:31.747Z,4.00
2023-05-02T06:22:58.743Z,4.00
2023-05-02T06:25:25.690Z,4.20
2023-05-02T06:27:52.722Z,4.25
2023-05-02T06:30:19.665Z,3.80
2023-05-02T06:32:46.902Z,4.60
2023-05-02T06:35:13.942Z,4.40
2023-05-02T06:37:41.034Z,5.00
2023-05-02T06:40:09.321Z,5.40
2023-05-02T06:42:36.290Z,5.20
2023-05-02T06:45:03.523Z,4.90
2023-05-02T06:47:30.708Z,5.70
2023-05-02T06:49:57.838Z,6.20
2023-05-02T06:52:25.045Z,6.10
2023-05-02T06:54:52.109Z,6.20
2023-05-02T06:57:19.051Z,6.32
2023-05-02T06:59:46.105Z,6.35
2023-05-02T07:02:13.064Z,6.38
2023-05-02T07:04:40.140Z,6.90
2023-05-02T07:07:07.353Z,6.75
2023-05-02T07:09:34.404Z,6.43
2023-05-02T07:12:04.540Z,6.75
2023-05-02T07:14:33.064Z,7.43
2023-05-02T07:17:00.343Z,7.20
2023-05-02T07:19:27.373Z,6.90
2023-05-02T07:21:54.541Z,6.60
2023-05-02T07:24:21.548Z,6.95
2023-05-02T07:26:48.724Z,7.40
2023-05-02T07:29:15.773Z,7.50
2023-05-02T07:31:42.871Z,7.10
2023-05-02T07:34:09.924Z,6.20
2023-05-02T07:36:36.890Z,7.10
2023-05-02T07:39:03.963Z,7.30
2023-05-02T07:41:31.304Z,7.00
2023-05-02T07:43:58.448Z,6.72
2023-05-02T07:46:25.559Z,6.57
2023-05-02T07:48:54.263Z,7.07
2023-05-02T07:51:21.719Z,6.70
2023-05-02T07:53:55.949Z,7.20
2023-05-02T07:56:22.897Z,6.50
2023-05-02T07:58:51.620Z,6.82
2023-05-02T08:01:19.102Z,6.40
2023-05-02T08:03:46.992Z,6.50
2023-05-02T08:06:14.425Z,6.80
2023-05-02T08:08:41.434Z,6.60
2023-05-02T08:11:08.403Z,6.90
2023-05-02T08:13:35.570Z,6.25
2023-05-02T08:16:02.982Z,6.00
2023-05-02T08:18:30.418Z,5.68
2023-05-02T08:20:58.639Z,5.80
2023-05-02T08:23:25.821Z,5.90
2023-05-02T08:25:52.897Z,6.40
2023-05-02T08:28:19.954Z,5.32
2023-05-02T08:30:47.094Z,6.18
2023-05-02T08:33:14.135Z,5.90
2023-05-02T08:35:41.229Z,6.45
2023-05-02T08:38:08.403Z,6.97
2023-05-02T08:40:42.173Z,5.80
2023-05-02T08:43:11.999Z,6.20
2023-05-02T08:45:44.729Z,6.85
2023-05-02T08:48:13.937Z,5.97
2023-05-02T08:50:44.685Z,6.60
2023-05-02T08:53:14.482Z,6.50
2023-05-02T08:55:42.778Z,6.15
2023-05-02T08:58:11.478Z,5.97
2023-05-02T09:00:43.270Z,6.22
2023-05-02T09:03:20.749Z,6.00
2023-05-02T09:05:55.506Z,6.30
2023-05-02T09:08:24.448Z,5.57
2023-05-02T09:10:51.840Z,5.55
2023-05-02T09:13:29.781Z,5.20
2023-05-02T09:16:02.541Z,5.80
2023-05-02T09:18:32.485Z,4.97
2023-05-02T09:21:00.952Z,5.28
2023-05-02T09:23:40.584Z,5.50
2023-05-02T09:26:24.284Z,4.95
2023-05-02T09:28:54.039Z,4.50
2023-05-02T09:34:16.279Z,5.28
2023-05-02T09:36:48.123Z,4.75
2023-05-02T09:39:17.659Z,5.05
2023-05-02T09:41:47.159Z,4.90
2023-05-02T09:44:19.800Z,5.40
2023-05-02T09:46:48.573Z,4.90
2023-05-02T09:49:19.104Z,5.30
2023-05-02T09:51:47.642Z,5.30
2023-05-02T09:54:36.383Z,5.60
2023-05-02T09:57:04.111Z,4.80
2023-05-02T09:59:31.228Z,4.88
2023-05-02T10:02:07.507Z,4.60
2023-05-02T10:04:34.993Z,4.88
2023-05-02T10:07:03.366Z,4.55
2023-05-02T10:09:33.643Z,4.90
2023-05-02T10:12:08.128Z,4.75
2023-05-02T10:14:43.729Z,5.25
2023-05-02T10:17:16.523Z,4.75
2023-05-02T10:19:57.461Z,5.13
2023-05-02T10:22:25.646Z,5.40
2023-05-02T10:24:53.716Z,5.30
2023-05-02T10:27:21.468Z,5.60
2023-05-02T10:29:51.362Z,5.43
2023-05-02T10:32:18.745Z,4.88
2023-05-02T10:34:47.648Z,4.70
2023-05-02T10:37:16.952Z,4.77
2023-05-02T10:39:44.039Z,5.50
2023-05-02T10:42:11.414Z,5.10
2023-05-02T10:44:40.565Z,5.00
2023-05-02T10:47:20.188Z,5.80
2023-05-02T10:49:59.833Z,5.22
2023-05-02T10:52:30.772Z,5.88
2023-05-02T10:55:17.203Z,4.70
2023-05-02T10:58:02.166Z,5.10
2023-05-02T11:00:31.500Z,4.80
2023-05-02T11:02:58.860Z,5.00
2023-05-02T11:05:27.116Z,5.50
2023-05-02T11:08:16.821Z,5.43
2023-05-02T11:10:46.349Z,5.90
2023-05-02T11:13:13.594Z,6.18
2023-05-02T11:15:40.559Z,6.18
2023-05-02T11:18:14.627Z,6.70
2023-05-02T11:20:45.966Z,7.20
2023-05-02T11:23:16.488Z,7.00
2023-05-02T11:25:47.593Z,6.63
2023-05-02T11:28:43.348Z,6.10
2023-05-02T11:31:30.820Z,6.75
2023-05-02T11:34:02.298Z,5.90
2023-05-02T11:36:36.408Z,6.40
2023-05-02T11:39:05.880Z,6.15
2023-05-02T11:41:59.282Z,5.40
2023-05-02T11:44:26.230Z,5.87
2023-05-02T11:46:53.576Z,6.63
2023-05-02T11:49:20.724Z,5.82
2023-05-02T11:51:47.864Z,6.18
2023-05-02T11:54:21.962Z,6.15
2023-05-02T11:56:49.288Z,6.25
2023-05-02T11:59:16.638Z,5.55
2023-05-02T12:01:50.540Z,6.00
2023-05-02T12:04:21.988Z,6.30
2023-05-02T12:06:57.195Z,5.43
2023-05-02T12:09:24.510Z,5.60
2023-05-02T12:11:54.889Z,5.40
2023-05-02T12:14:33.583Z,5.10
2023-05-02T12:17:01.714Z,4.60
2023-05-02T12:19:28.972Z,4.90
2023-05-02T12:21:56.266Z,4.32
2023-05-02T12:24:23.490Z,5.00
2023-05-02T12:26:53.026Z,5.68
2023-05-02T12:29:20.132Z,6.73
2023-05-02T12:31:53.370Z,6.30
2023-05-02T12:34:41.377Z,6.22
2023-05-02T12:37:09.270Z,5.80
2023-05-02T12:39:41.228Z,5.40
2023-05-02T12:42:16.890Z,5.50
2023-05-02T12:44:46.155Z,5.47
2023-05-02T12:47:15.137Z,5.40
2023-05-02T12:49:57.220Z,5.25
2023-05-02T12:52:57.757Z,4.88
2023-05-02T12:55:27.316Z,6.15
2023-05-02T12:58:05.252Z,6.53
2023-05-02T13:00:36.275Z,6.50
2023-05-02T13:03:04.075Z,6.35
2023-05-02T13:05:31.291Z,5.60
2023-05-02T13:07:59.360Z,5.03
2023-05-02T13:10:27.386Z,5.10
2023-05-02T13:12:55.055Z,4.90
2023-05-02T13:15:22.297Z,4.80
2023-05-02T13:17:51.828Z,4.00
2023-05-02T13:20:19.219Z,4.32
2023-05-02T13:22:46.342Z,3.90
2023-05-02T13:25:13.377Z,3.97
2023-05-02T13:27:41.346Z,3.80
2023-05-02T13:30:09.969Z,3.90
2023-05-02T13:32:37.441Z,4.30
2023-05-02T13:35:04.898Z,4.30
2023-05-02T13:37:32.014Z,4.65
2023-05-02T13:39:59.282Z,3.47
2023-05-02T13:42:26.459Z,3.50
2023-05-02T13:44:53.522Z,3.20
2023-05-02T13:47:21.649Z,3.78
2023-05-02T13:49:48.634Z,3.40
2023-05-02T13:52:16.212Z,3.70
2023-05-02T13:54:43.184Z,3.80
2023-05-02T13:57:10.247Z,3.60
2023-05-02T13:59:37.534Z,3.80
2023-05-02T14:02:05.046Z,3.23
2023-05-02T14:04:32.091Z,3.20
2023-05-02T14:06:59.138Z,2.92
2023-05-02T14:09:26.376Z,3.00
2023-05-02T14:11:53.416Z,2.90
2023-05-02T14:14:20.609Z,3.20
2023-05-02T14:16:50.137Z,2.67
2023-05-02T14:19:18.090Z,2.90
2023-05-02T14:21:45.237Z,2.33
2023-05-02T14:24:16.491Z,2.57
2023-05-02T14:26:43.544Z,2.90
2023-05-02T14:29:10.838Z,3.47
2023-05-02T14:31:37.990Z,2.90
2023-05-02T14:34:07.462Z,3.20
2023-05-02T14:36:35.962Z,3.00
2023-05-02T14:39:03.081Z,3.42
2023-05-02T14:41:30.250Z,3.47
2023-05-02T14:43:57.294Z,3.40
2023-05-02T14:46:24.455Z,3.25
2023-05-02T14:48:51.530Z,3.45
2023-05-02T14:51:18.775Z,3.60
2023-05-02T14:53:48.460Z,4.10
2023-05-02T14:56:17.258Z,4.60
2023-05-02T14:58:44.580Z,5.32
2023-05-02T15:01:19.247Z,4.53
2023-05-02T15:04:04.130Z,4.90
2023-05-02T15:06:32.985Z,5.80
2023-05-02T15:09:00.146Z,6.20
2023-05-02T15:11:27.539Z,6.13
2023-05-02T15:13:56.589Z,5.88
2023-05-02T15:16:26.770Z,5.93
2023-05-02T15:18:54.137Z,5.90
2023-05-02T15:21:21.345Z,6.85
2023-05-02T15:23:48.555Z,6.45
2023-05-02T15:26:15.540Z,6.78
2023-05-02T15:28:42.559Z,6.50
2023-05-02T15:31:09.595Z,7.03
2023-05-02T15:33:38.404Z,6.68
2023-05-02T15:36:06.814Z,6.00
2023-05-02T15:38:39.493Z,5.70
2023-05-02T15:41:08.194Z,6.00
2023-05-02T15:43:35.559Z,5.90
2023-05-02T15:46:02.772Z,6.40
2023-05-02T15:48:33.446Z,5.80
2023-05-02T15:51:00.726Z,5.93
2023-05-02T15:53:28.438Z,6.05
2023-05-02T15:55:55.570Z,5.70
2023-05-02T15:58:22.812Z,5.28
2023-05-02T16:00:50.943Z,5.70
2023-05-02T16:03:18.249Z,7.00
2023-05-02T16:05:45.365Z,6.22
2023-05-02T16:08:12.421Z,6.50
2023-05-02T16:10:40.488Z,6.20
2023-05-02T16:13:07.599Z,6.20
2023-05-02T16:15:34.588Z,5.40
2023-05-02T16:18:01.925Z,6.00
2023-05-02T16:20:29.058Z,6.07
2023-05-02T16:22:56.184Z,5.78
2023-05-02T16:25:23.153Z,5.20
2023-05-02T16:27:50.234Z,4.65
2023-05-02T16:30:17.450Z,5.30
2023-05-02T16:32:44.788Z,4.60
2023-05-02T16:35:13.213Z,4.75
2023-05-02T16:37:41.992Z,4.38
2023-05-02T16:40:09.753Z,4.00
2023-05-02T16:42:37.175Z,4.60
2023-05-02T16:45:04.775Z,3.90
2023-05-02T16:47:32.073Z,4.40
2023-05-02T16:50:01.733Z,3.50
2023-05-02T16:52:29.227Z,3.80
2023-05-02T16:54:56.723Z,3.80
2023-05-02T16:57:23.752Z,3.70
2023-05-02T16:59:52.521Z,3.28
2023-05-02T17:02:22.133Z,3.80
2023-05-02T17:04:51.332Z,3.30
2023-05-02T17:07:18.443Z,3.60
2023-05-02T17:09:45.468Z,3.40
2023-05-02T17:12:13.048Z,3.40
2023-05-02T17:14:42.460Z,3.60
2023-05-02T17:17:10.424Z,3.65
2023-05-02T17:19:38.125Z,3.40
2023-05-02T17:22:05.529Z,3.15
2023-05-02T17:24:33.476Z,3.50
2023-05-02T17:27:01.477Z,2.85
2023-05-02T17:29:28.818Z,3.43
2023-05-02T17:32:00.700Z,3.00
2023-05-02T17:34:28.905Z,3.20
2023-05-02T17:36:56.145Z,3.17
2023-05-02T17:39:23.394Z,3.50
2023-05-02T17:41:50.578Z,3.50
2023-05-02T17:44:17.675Z,3.35
2023-05-02T17:46:44.805Z,3.20
2023-05-02T17:49:12.000Z,3.20
2023-05-02T17:51:38.936Z,2.88
2023-05-02T17:54:06.056Z,3.00
2023-05-02T17:56:37.467Z,3.20
2023-05-02T17:59:05.103Z,3.20
2023-05-02T18:01:32.378Z,3.30
2023-05-02T18:03:59.742Z,3.30
2023-05-02T18:06:28.339Z,3.10
2023-05-02T18:08:55.488Z,2.90
2023-05-02T18:11:24.327Z,2.92
2023-05-02T18:13:51.491Z,2.93
2023-05-02T18:16:18.885Z,3.33
2023-05-02T18:18:46.125Z,3.38
2023-05-02T18:21:21.406Z,3.00
2023-05-02T18:23:48.704Z,3.10
2023-05-02T18:26:15.826Z,3.10
2023-05-02T18:28:44.739Z,3.50
2023-05-02T18:31:17.786Z,3.27
2023-05-02T18:33:46.777Z,3.20
2023-05-02T18:36:15.707Z,3.20
2023-05-02T18:38:42.633Z,3.30
2023-05-02T18:41:10.816Z,3.00
2023-05-02T18:43:38.366Z,3.53
2023-05-02T18:46:05.423Z,3.65
2023-05-02T18:48:32.499Z,3.20
2023-05-02T18:50:59.582Z,3.00
2023-05-02T18:53:26.805Z,2.97
2023-05-02T18:55:54.269Z,3.28
2023-05-02T18:58:22.670Z,2.90
2023-05-02T19:00:50.118Z,2.90
2023-05-02T19:03:17.565Z,3.20
2023-05-02T19:05:45.679Z,3.10
2023-05-02T19:08:12.925Z,2.80
2023-05-02T19:10:39.978Z,3.20
2023-05-02T19:13:06.952Z,3.20
2023-05-02T19:15:34.341Z,3.63
2023-05-02T19:18:01.356Z,3.30
2023-05-02T19:20:30.141Z,3.42
2023-05-02T19:23:17.725Z,3.60
2023-05-02T19:25:46.169Z,3.40
2023-05-02T19:28:15.824Z,3.77
2023-05-02T19:30:45.310Z,3.40
2023-05-02T19:33:12.551Z,3.40
2023-05-02T19:35:40.297Z,3.20
2023-05-02T19:38:07.657Z,3.40
2023-05-02T19:40:34.782Z,3.40
2023-05-02T19:43:01.863Z,3.40
2023-05-02T19:45:28.922Z,3.30
2023-05-02T19:47:56.394Z,3.40
2023-05-02T19:50:25.737Z,3.60
2023-05-02T19:52:52.869Z,3.70
2023-05-02T19:55:20.906Z,3.42
2023-05-02T19:57:48.867Z,4.18
2023-05-02T20:00:16.370Z,4.00
2023-05-02T20:02:43.514Z,4.00
2023-05-02T20:05:10.699Z,4.00
2023-05-02T20:07:37.914Z,4.00
2023-05-02T20:10:05.624Z,4.65
2023-05-02T20:12:32.831Z,4.60
2023-05-02T20:14:59.880Z,5.22
2023-05-02T20:17:27.274Z,5.75
2023-05-02T20:19:54.291Z,5.95
2023-05-02T20:22:21.344Z,8.50
2023-05-02T20:24:48.459Z,6.72
2023-05-02T20:27:15.613Z,7.20
2023-05-02T20:29:42.667Z,7.32
2023-05-02T20:32:09.841Z,7.00
2023-05-02T20:34:39.187Z,6.45
2023-05-02T20:37:11.765Z,6.60
2023-05-02T20:39:38.913Z,6.03
2023-05-02T20:42:06.205Z,6.28
2023-05-02T20:44:36.565Z,5.60
2023-05-02T20:47:04.083Z,5.30
2023-05-02T20:49:34.488Z,5.38
2023-05-02T20:52:05.772Z,5.10
2023-05-02T20:54:32.791Z,4.97
2023-05-02T20:56:59.884Z,5.40
2023-05-02T20:59:26.951Z,4.93
2023-05-02T21:01:54.211Z,5.05
2023-05-02T21:04:21.509Z,4.80
2023-05-02T21:06:48.578Z,4.82
2023-05-02T21:09:17.071Z,4.40
2023-05-02T21:11:44.396Z,4.10
2023-05-02T21:14:11.905Z,4.15
2023-05-02T21:16:39.213Z,4.50
2023-05-02T21:19:06.264Z,3.67
2023-05-02T21:21:33.489Z,3.97
2023-05-02T21:24:00.805Z,4.00
2023-05-02T21:26:28.080Z,4.20
2023-05-02T21:28:55.087Z,3.80
2023-05-02T21:31:22.352Z,3.83
2023-05-02T21:33:49.461Z,4.20
2023-05-02T21:36:16.533Z,4.10
2023-05-02T21:38:43.541Z,4.38
2023-05-02T21:41:10.597Z,3.90
2023-05-02T21:43:41.015Z,4.20
2023-05-02T21:46:10.971Z,4.60
2023-05-02T21:48:38.325Z,4.53
2023-05-02T21:51:09.771Z,4.20
2023-05-02T21:53:37.239Z,4.18
2023-05-02T21:56:06.132Z,4.30
2023-05-02T21:58:33.135Z,4.43
2023-05-02T22:01:00.914Z,4.22
2023-05-02T22:03:28.169Z,4.13
2023-05-02T22:05:57.533Z,4.28
2023-05-02T22:08:24.834Z,4.28
2023-05-02T22:10:52.053Z,4.10
2023-05-02T22:13:18.987Z,3.90
2023-05-02T22:15:47.366Z,4.22
2023-05-02T22:18:18.166Z,3.92
2023-05-02T22:20:45.669Z,3.80
2023-05-02T22:23:13.084Z,3.55
2023-05-02T22:25:42.737Z,3.70
2023-05-02T22:28:13.813Z,3.70
2023-05-02T22:30:44.932Z,3.90
2023-05-02T22:33:12.904Z,3.90
2023-05-02T22:35:40.198Z,3.60
2023-05-02T22:38:09.164Z,3.60
2023-05-02T22:40:36.322Z,3.72
2023-05-02T22:43:03.433Z,3.10
2023-05-02T22:45:30.588Z,3.40
2023-05-02T22:47:57.669Z,3.53
2023-05-02T22:50:26.387Z,3.47
2023-05-02T22:52:57.266Z,3.40
2023-05-02T22:55:24.691Z,3.60
2023-05-02T22:57:52.214Z,3.35
2023-05-02T23:00:19.568Z,3.80
2023-05-02T23:02:46.631Z,3.83
2023-05-02T23:05:14.302Z,3.47
2023-05-02T23:07:41.365Z,3.83
2023-05-02T23:10:09.469Z,3.55
2023-05-02T23:12:36.492Z,3.83
2023-05-02T23:15:03.679Z,4.13
2023-05-02T23:17:30.762Z,4.45
2023-05-02T23:19:58.419Z,4.20
2023-05-02T23:22:25.557Z,4.20
2023-05-02T23:24:52.868Z,4.03
2023-05-02T23:27:19.960Z,4.30
2023-05-02T23:29:49.047Z,4.00
2023-05-02T23:32:16.997Z,4.40
2023-05-02T23:34:44.546Z,4.20
2023-05-02T23:37:12.836Z,4.32
2023-05-02T23:39:40.234Z,4.37
2023-05-02T23:42:08.004Z,4.63
2023-05-02T23:44:34.979Z,4.50
2023-05-02T23:47:02.119Z,4.70
2023-05-02T23:49:29.125Z,4.40
2023-05-02T23:51:56.321Z,4.50
2023-05-02T23:54:23.527Z,3.80
2023-05-02T23:56:50.680Z,3.77
2023-05-02T23:59:17.609Z,3.85
